Terminal Aerodrome Forecast
Issued by NWS Burlington, VT

Home | Current Version | Previous Version | Text Only | Print | Product List | Glossary On
Versions: 1 2 3 4 5 6 7 8 9 10 11 12 13
000
FTUS41 KBTV 040529
TAFBTV
TAF
KBTV 040529Z 0406/0506 VRB03KT P6SM SCT250
     FM041400 19014G20KT P6SM FEW090 SCT250
     FM041800 19015G25KT P6SM FEW070 SCT200
     FM050100 20014KT P6SM OVC080=

USA.gov is the U.S. government's official web portal to all federal, state and local government web resources and services.